Time;durP1;ratioP1;P1;durP2;ratioP2;P2;SDS_P1;SDS_P2;PMS_P1;PMS_P2;Temp;Humidity;BMP_temperature;BMP_pressure;BME280_temperature;BME280_humidity;BME280_pressure;Samples;Min_cycle;Max_cycle;Signal;HPM_P1;HPM_P2
2021/07/10 00:00:29;;;;;;;30.03;25.90;;;13.60;99.90;;;;;;5037104;28;20517;-79
2021/07/10 00:02:56;;;;;;;27.33;24.50;;;13.50;99.90;;;;;;5033221;28;20531;-80
2021/07/10 00:05:24;;;;;;;27.20;24.40;;;13.40;99.90;;;;;;5031618;28;20926;-80
2021/07/10 00:07:50;;;;;;;29.20;26.30;;;13.40;99.90;;;;;;5037547;28;20532;-79
2021/07/10 00:10:19;;;;;;;30.23;26.87;;;13.30;99.90;;;;;;5047720;28;20528;-79
2021/07/10 00:12:46;;;;;;;33.83;28.17;;;13.30;99.90;;;;;;5043911;28;20476;-79
2021/07/10 00:15:16;;;;;;;33.80;30.20;;;13.30;99.90;;;;;;5039121;28;20453;-78
2021/07/10 00:17:44;;;;;;;35.33;29.70;;;13.30;99.90;;;;;;5036238;28;22103;-79
2021/07/10 00:20:12;;;;;;;33.97;30.13;;;13.30;99.90;;;;;;5034848;28;20602;-80
2021/07/10 00:22:39;;;;;;;35.63;30.30;;;13.20;99.90;;;;;;5036981;28;20451;-77
2021/07/10 00:25:07;;;;;;;36.23;32.00;;;13.20;99.90;;;;;;5040783;28;20567;-79
2021/07/10 00:27:37;;;;;;;39.80;31.93;;;13.20;99.90;;;;;;5050951;28;20479;-78
2021/07/10 00:30:05;;;;;;;36.50;32.47;;;13.20;99.90;;;;;;5047339;28;20487;-78
2021/07/10 00:32:32;;;;;;;39.57;32.20;;;13.10;99.90;;;;;;5048336;28;20479;-79
2021/07/10 00:34:59;;;;;;;35.63;31.30;;;13.10;99.90;;;;;;5046417;28;20466;-79
2021/07/10 00:37:26;;;;;;;34.27;30.67;;;13.00;99.90;;;;;;5047353;28;20452;-79
2021/07/10 00:39:53;;;;;;;33.93;29.43;;;13.00;99.90;;;;;;5039983;28;20475;-79
2021/07/10 00:42:21;;;;;;;29.30;26.30;;;13.00;99.90;;;;;;5033555;28;20456;-79
2021/07/10 00:44:50;;;;;;;34.40;30.60;;;12.90;99.90;;;;;;5037971;28;20786;-79
2021/07/10 00:47:17;;;;;;;35.57;29.90;;;13.00;99.90;;;;;;5036054;28;20575;-79
2021/07/10 00:49:44;;;;;;;31.17;27.90;;;12.90;99.90;;;;;;5039625;28;20463;-79
2021/07/10 00:52:11;;;;;;;31.63;28.53;;;12.90;99.90;;;;;;5035797;28;20476;-79
2021/07/10 00:54:39;;;;;;;30.10;26.93;;;12.90;99.90;;;;;;5036716;28;20894;-79
2021/07/10 00:57:07;;;;;;;35.60;31.00;;;12.90;99.90;;;;;;5038808;28;20450;-79
2021/07/10 00:59:36;;;;;;;41.23;34.00;;;13.00;99.90;;;;;;5041485;28;20450;-79
2021/07/10 01:02:05;;;;;;;39.90;30.57;;;13.10;99.90;;;;;;5034754;28;20456;-79
2021/07/10 01:04:31;;;;;;;37.83;30.97;;;13.20;99.90;;;;;;5032053;28;20539;-79
2021/07/10 01:06:58;;;;;;;38.37;28.47;;;13.30;99.90;;;;;;5033193;28;20454;-80
2021/07/10 01:09:25;;;;;;;42.80;30.30;;;13.30;99.90;;;;;;5037772;28;20542;-79
2021/07/10 01:11:53;;;;;;;61.37;31.80;;;13.30;99.90;;;;;;5053669;28;21205;-80
2021/07/10 01:14:20;;;;;;;52.43;28.03;;;13.30;99.90;;;;;;5038155;28;20502;-79
2021/07/10 01:16:47;;;;;;;84.13;31.10;;;13.30;99.90;;;;;;5038282;28;20840;-79
2021/07/10 01:19:21;;;;;;;58.83;27.70;;;13.40;99.90;;;;;;5040281;28;20454;-78
2021/07/10 01:21:49;;;;;;;96.43;29.70;;;13.40;99.90;;;;;;5035473;28;20454;-78
2021/07/10 01:24:16;;;;;;;93.13;29.83;;;13.30;99.90;;;;;;5034143;28;20493;-79
2021/07/10 01:26:43;;;;;;;54.90;26.77;;;13.30;99.90;;;;;;5045843;28;20466;-79
2021/07/10 01:29:10;;;;;;;44.60;26.87;;;13.30;99.90;;;;;;5049676;28;20514;-78
2021/07/10 01:31:38;;;;;;;38.87;27.20;;;13.40;99.90;;;;;;5052578;28;20497;-79
2021/07/10 01:34:05;;;;;;;33.87;25.70;;;13.50;99.90;;;;;;5050252;28;20852;-79
2021/07/10 01:36:33;;;;;;;31.97;25.20;;;13.50;99.90;;;;;;5040736;28;20458;-78
2021/07/10 01:39:03;;;;;;;33.27;23.77;;;13.50;99.90;;;;;;5029721;28;20478;-78
2021/07/10 01:41:39;;;;;;;30.07;22.23;;;13.50;99.90;;;;;;5035405;28;20886;-78
2021/07/10 01:44:06;;;;;;;26.50;22.40;;;13.40;99.90;;;;;;5040379;28;20943;-79
2021/07/10 01:46:33;;;;;;;22.10;19.83;;;13.40;99.90;;;;;;5032930;28;20502;-78
2021/07/10 01:49:00;;;;;;;21.10;18.67;;;13.30;99.90;;;;;;5035576;28;20449;-79
2021/07/10 01:51:28;;;;;;;25.13;20.40;;;13.30;99.90;;;;;;5031542;28;20549;-78
2021/07/10 01:53:55;;;;;;;26.03;20.80;;;13.20;99.90;;;;;;5033419;28;20466;-79
2021/07/10 01:56:23;;;;;;;25.70;21.43;;;13.30;99.90;;;;;;5048646;28;20511;-79
2021/07/10 01:58:50;;;;;;;23.97;20.10;;;13.20;99.90;;;;;;5042067;28;20462;-79
2021/07/10 02:01:17;;;;;;;25.83;22.03;;;13.20;99.90;;;;;;5032789;28;20445;-79
2021/07/10 02:03:44;;;;;;;26.07;21.20;;;13.20;99.90;;;;;;5037045;28;20461;-80
2021/07/10 02:06:11;;;;;;;22.07;19.97;;;13.20;99.90;;;;;;5039008;28;20477;-80
2021/07/10 02:08:38;;;;;;;21.13;18.97;;;13.10;99.90;;;;;;5036031;28;20470;-80
2021/07/10 02:11:05;;;;;;;21.63;19.50;;;13.20;99.90;;;;;;5043408;28;20462;-80
2021/07/10 02:13:35;;;;;;;19.40;17.30;;;13.20;99.90;;;;;;5049349;28;20516;-80
2021/07/10 02:16:02;;;;;;;16.73;15.13;;;13.10;99.90;;;;;;5055455;28;20485;-79
2021/07/10 02:18:29;;;;;;;17.70;16.03;;;13.10;99.90;;;;;;5038745;28;20821;-80
2021/07/10 02:20:56;;;;;;;17.13;15.53;;;12.90;99.90;;;;;;5036829;28;20520;-80
2021/07/10 02:23:23;;;;;;;16.30;14.80;;;13.00;99.90;;;;;;5042793;28;20558;-80
2021/07/10 02:25:50;;;;;;;17.83;16.07;;;13.00;99.90;;;;;;5033981;28;20454;-78
2021/07/10 02:28:17;;;;;;;18.10;16.40;;;13.00;99.90;;;;;;5036996;28;20806;-78
2021/07/10 02:30:46;;;;;;;18.60;16.90;;;13.10;99.90;;;;;;5035587;28;20947;-78
2021/07/10 02:33:12;;;;;;;17.90;16.30;;;13.10;99.90;;;;;;5047053;28;20472;-79
2021/07/10 02:35:39;;;;;;;17.10;15.60;;;13.20;99.90;;;;;;5048278;28;21574;-79
2021/07/10 02:38:07;;;;;;;18.40;16.77;;;13.20;99.90;;;;;;5041822;28;20446;-79
2021/07/10 02:40:34;;;;;;;16.70;15.30;;;13.30;99.90;;;;;;5037821;28;20494;-78
2021/07/10 02:43:01;;;;;;;17.27;15.67;;;13.30;99.90;;;;;;5043684;28;20491;-79
2021/07/10 02:45:28;;;;;;;16.23;14.83;;;13.40;99.90;;;;;;5036334;28;20468;-79
2021/07/10 02:47:57;;;;;;;15.60;14.20;;;13.50;99.90;;;;;;5044434;28;20482;-78
2021/07/10 02:50:26;;;;;;;16.43;15.03;;;13.40;99.90;;;;;;5048462;28;20474;-78
2021/07/10 02:52:54;;;;;;;15.23;13.83;;;13.30;99.90;;;;;;5042581;28;20449;-78
2021/07/10 02:55:22;;;;;;;16.03;14.63;;;13.30;99.90;;;;;;5040979;28;21141;-79
2021/07/10 02:57:48;;;;;;;15.47;14.17;;;13.30;99.90;;;;;;5041253;28;20451;-79
2021/07/10 03:00:18;;;;;;;17.00;15.40;;;13.40;99.90;;;;;;5053870;28;20461;-79
2021/07/10 03:02:45;;;;;;;16.47;14.67;;;13.40;99.90;;;;;;5043348;28;20564;-79
2021/07/10 03:05:14;;;;;;;16.10;14.60;;;13.40;99.90;;;;;;5046560;28;20531;-79
2021/07/10 03:07:43;;;;;;;17.40;15.60;;;13.40;99.90;;;;;;5044908;28;20457;-79
2021/07/10 03:10:12;;;;;;;18.07;16.47;;;13.40;99.90;;;;;;5039099;28;20533;-79
2021/07/10 03:12:39;;;;;;;17.37;15.70;;;13.40;99.90;;;;;;5041118;28;20452;-79
2021/07/10 03:15:09;;;;;;;18.30;16.53;;;13.40;99.90;;;;;;5048350;28;20447;-79
2021/07/10 03:17:36;;;;;;;16.10;14.70;;;13.40;99.90;;;;;;5042816;28;20473;-79
2021/07/10 03:20:05;;;;;;;17.43;15.67;;;13.40;99.90;;;;;;5044615;28;20438;-78
2021/07/10 03:22:33;;;;;;;17.73;16.03;;;13.40;99.90;;;;;;5039545;28;20458;-78
2021/07/10 03:25:00;;;;;;;19.53;17.63;;;13.40;99.90;;;;;;5046582;28;20824;-77
2021/07/10 03:27:27;;;;;;;19.33;17.33;;;13.50;99.90;;;;;;5041068;28;20489;-78
2021/07/10 03:29:54;;;;;;;19.83;17.80;;;13.50;99.90;;;;;;5057821;28;20471;-78
2021/07/10 03:32:21;;;;;;;17.60;16.00;;;13.60;99.90;;;;;;5059225;28;20465;-79
2021/07/10 03:34:48;;;;;;;17.67;16.00;;;13.60;99.90;;;;;;5052096;28;20485;-78
2021/07/10 03:37:15;;;;;;;18.80;17.00;;;13.60;99.90;;;;;;5044822;28;20495;-79
2021/07/10 03:39:43;;;;;;;19.73;17.63;;;13.60;99.90;;;;;;5044660;28;20478;-78
2021/07/10 03:42:10;;;;;;;18.20;16.50;;;13.70;99.90;;;;;;5036126;28;20549;-79
2021/07/10 03:44:37;;;;;;;17.37;15.73;;;13.70;99.90;;;;;;5042539;28;20480;-79
2021/07/10 03:47:04;;;;;;;17.30;15.63;;;13.80;99.90;;;;;;5047500;28;20449;-79
2021/07/10 03:49:31;;;;;;;17.37;15.67;;;13.80;99.90;;;;;;5051928;28;20547;-79
2021/07/10 03:51:58;;;;;;;18.57;16.87;;;13.80;99.90;;;;;;5060124;28;20478;-79
2021/07/10 03:54:24;;;;;;;19.00;17.10;;;13.90;99.90;;;;;;5045058;28;20475;-78
2021/07/10 03:56:53;;;;;;;18.93;17.13;;;14.00;99.90;;;;;;5048640;28;20467;-79
2021/07/10 03:59:19;;;;;;;19.37;17.40;;;14.00;99.90;;;;;;5046276;28;20491;-78
2021/07/10 04:01:46;;;;;;;19.23;17.23;;;14.00;99.90;;;;;;5049059;28;21019;-78
2021/07/10 04:04:13;;;;;;;18.60;16.90;;;14.00;99.90;;;;;;5048118;28;21054;-78
2021/07/10 04:06:40;;;;;;;22.83;19.00;;;14.00;99.90;;;;;;5038780;28;20551;-78
2021/07/10 04:09:07;;;;;;;19.40;17.23;;;14.00;99.90;;;;;;5035191;28;20476;-77
2021/07/10 04:11:34;;;;;;;20.40;18.40;;;14.00;99.90;;;;;;5033593;28;20481;-78
2021/07/10 04:14:03;;;;;;;23.13;19.80;;;14.00;99.90;;;;;;5049489;28;20448;-80
2021/07/10 04:16:30;;;;;;;19.30;17.40;;;14.10;99.90;;;;;;5031250;28;20484;-78
2021/07/10 04:18:57;;;;;;;18.60;16.73;;;14.10;99.90;;;;;;5037264;28;21149;-78
2021/07/10 04:21:24;;;;;;;21.40;19.20;;;14.10;99.90;;;;;;5032939;28;20508;-78
2021/07/10 04:23:51;;;;;;;18.63;16.73;;;14.20;99.90;;;;;;5035942;28;20448;-78
2021/07/10 04:26:17;;;;;;;20.20;18.07;;;14.10;99.90;;;;;;5040664;28;20448;-79
2021/07/10 04:28:44;;;;;;;21.00;18.27;;;14.10;99.90;;;;;;5047327;28;20450;-79
2021/07/10 04:31:12;;;;;;;20.20;18.20;;;14.10;99.90;;;;;;5048980;28;20567;-79
2021/07/10 04:33:39;;;;;;;20.20;18.10;;;14.20;99.90;;;;;;5051666;28;20460;-79
2021/07/10 04:36:06;;;;;;;22.93;20.23;;;14.40;99.90;;;;;;5052323;28;20445;-78
2021/07/10 04:38:37;;;;;;;22.07;19.97;;;14.50;99.90;;;;;;5040280;28;20476;-78
2021/07/10 04:41:05;;;;;;;22.70;20.20;;;14.60;99.90;;;;;;5042723;28;20446;-78
2021/07/10 04:43:32;;;;;;;23.77;21.37;;;14.60;99.90;;;;;;5040921;28;20471;-78
2021/07/10 04:45:59;;;;;;;21.93;19.63;;;14.60;99.90;;;;;;5043881;28;21078;-78
2021/07/10 04:48:28;;;;;;;22.00;19.90;;;14.60;99.90;;;;;;5032297;28;20458;-78
2021/07/10 04:50:55;;;;;;;22.53;20.20;;;14.60;99.90;;;;;;5035334;28;20503;-78
2021/07/10 04:53:22;;;;;;;21.60;19.30;;;14.70;99.90;;;;;;5033971;28;20532;-78
2021/07/10 04:55:49;;;;;;;22.03;19.83;;;14.70;99.90;;;;;;5036194;28;20956;-78
2021/07/10 04:58:15;;;;;;;22.97;20.67;;;14.80;99.90;;;;;;5036753;28;20542;-79
2021/07/10 05:00:43;;;;;;;20.90;18.43;;;14.80;99.90;;;;;;5036103;28;20450;-79
2021/07/10 05:03:11;;;;;;;21.67;19.47;;;14.60;99.90;;;;;;5036443;28;20823;-79
2021/07/10 05:05:39;;;;;;;21.10;18.90;;;14.60;99.90;;;;;;5034029;28;20543;-79
2021/07/10 05:08:07;;;;;;;22.33;20.03;;;14.50;99.90;;;;;;5036060;28;20602;-79
2021/07/10 05:10:34;;;;;;;21.67;19.10;;;14.60;99.90;;;;;;5031632;28;20467;-79
2021/07/10 05:13:01;;;;;;;24.13;20.90;;;14.70;99.90;;;;;;5036921;28;20464;-79
2021/07/10 05:15:28;;;;;;;21.50;19.30;;;14.60;99.90;;;;;;5033968;28;20458;-79
2021/07/10 05:17:57;;;;;;;22.60;20.07;;;14.60;99.90;;;;;;5034147;28;20470;-79
2021/07/10 05:20:24;;;;;;;21.60;18.47;;;14.70;99.90;;;;;;5031092;28;20456;-79
2021/07/10 05:22:52;;;;;;;19.43;17.53;;;14.80;99.90;;;;;;5034163;28;20453;-79
2021/07/10 05:25:19;;;;;;;19.17;17.30;;;14.90;99.90;;;;;;5034428;28;20572;-79
2021/07/10 05:27:46;;;;;;;20.97;18.50;;;15.10;99.90;;;;;;5036808;28;20474;-79
2021/07/10 05:30:16;;;;;;;21.30;18.50;;;15.10;99.90;;;;;;5037705;28;22480;-79
2021/07/10 05:32:44;;;;;;;20.30;18.20;;;15.00;99.90;;;;;;5054009;28;20453;-76
2021/07/10 05:35:12;;;;;;;19.60;17.17;;;15.10;99.90;;;;;;5055075;28;20455;-79
2021/07/10 05:37:40;;;;;;;20.40;17.37;;;15.10;99.90;;;;;;5042936;28;20480;-78
2021/07/10 05:40:09;;;;;;;21.93;18.03;;;15.00;99.90;;;;;;5032245;28;21004;-77
2021/07/10 05:42:36;;;;;;;19.07;16.93;;;15.10;99.90;;;;;;5032419;28;20549;-78
2021/07/10 05:45:04;;;;;;;20.10;17.93;;;15.10;99.90;;;;;;5038533;28;20556;-78
2021/07/10 05:47:31;;;;;;;19.50;17.13;;;14.90;99.90;;;;;;5029614;28;20545;-79
2021/07/10 05:49:58;;;;;;;24.47;17.93;;;14.90;99.90;;;;;;5036813;28;20443;-78
2021/07/10 05:52:24;;;;;;;19.77;17.60;;;14.90;99.90;;;;;;5041128;28;20630;-77
2021/07/10 05:54:51;;;;;;;21.40;17.97;;;14.90;99.90;;;;;;5035382;28;21660;-78
2021/07/10 05:57:19;;;;;;;23.03;17.27;;;15.10;99.90;;;;;;5033153;28;20540;-78
2021/07/10 05:59:46;;;;;;;19.43;17.30;;;15.20;99.90;;;;;;5038534;28;20485;-77
2021/07/10 06:02:13;;;;;;;18.97;15.53;;;15.20;99.90;;;;;;5032507;28;20534;-77
2021/07/10 06:04:40;;;;;;;16.33;14.70;;;15.30;99.90;;;;;;5028999;28;20504;-75
2021/07/10 06:07:07;;;;;;;17.20;15.40;;;15.10;99.90;;;;;;5022410;28;20940;-75
2021/07/10 06:09:34;;;;;;;18.47;16.57;;;15.10;99.90;;;;;;5024258;28;20989;-75
2021/07/10 06:12:02;;;;;;;18.80;16.87;;;15.00;99.90;;;;;;5032013;28;20535;-75
2021/07/10 06:14:30;;;;;;;16.53;14.87;;;15.10;99.90;;;;;;5026334;28;20561;-75
2021/07/10 06:16:57;;;;;;;16.40;14.77;;;15.30;99.90;;;;;;5025719;28;20503;-75
2021/07/10 06:19:24;;;;;;;15.30;13.80;;;15.40;99.90;;;;;;5018985;28;20493;-77
2021/07/10 06:21:51;;;;;;;14.70;13.20;;;15.60;99.90;;;;;;5031766;28;20460;-75
2021/07/10 06:24:19;;;;;;;15.20;13.20;;;15.50;99.90;;;;;;5022747;28;20487;-75
2021/07/10 06:26:46;;;;;;;15.37;13.80;;;15.60;99.90;;;;;;5020477;28;20524;-75
2021/07/10 06:29:13;;;;;;;15.13;13.53;;;15.60;99.00;;;;;;5026172;28;20531;-75
2021/07/10 06:31:41;;;;;;;14.77;13.03;;;15.60;99.10;;;;;;5025756;28;20500;-75
2021/07/10 06:34:09;;;;;;;14.93;12.70;;;15.80;99.00;;;;;;5021965;28;20547;-75
2021/07/10 06:36:37;;;;;;;12.43;11.33;;;16.10;96.70;;;;;;5026219;28;20467;-75
2021/07/10 06:39:05;;;;;;;12.60;11.00;;;16.30;94.50;;;;;;5032262;28;20461;-75
2021/07/10 06:41:32;;;;;;;13.60;11.40;;;16.30;93.70;;;;;;5030998;28;20454;-75
2021/07/10 06:44:00;;;;;;;12.30;11.20;;;16.40;93.50;;;;;;5026853;28;20646;-74
2021/07/10 06:46:27;;;;;;;11.03;10.03;;;16.40;93.50;;;;;;5025836;28;20457;-76
2021/07/10 06:48:55;;;;;;;10.27;9.27;;;16.50;92.30;;;;;;5031787;28;22933;-75
2021/07/10 06:51:22;;;;;;;10.80;9.70;;;16.30;93.00;;;;;;5041097;28;20471;-75
2021/07/10 06:53:49;;;;;;;10.90;9.87;;;16.20;92.20;;;;;;5024027;28;20958;-74
2021/07/10 06:56:16;;;;;;;10.73;9.73;;;15.90;93.60;;;;;;5024790;28;20451;-75
2021/07/10 06:58:43;;;;;;;11.10;10.20;;;15.90;94.80;;;;;;5026974;28;21457;-74
2021/07/10 07:01:09;;;;;;;11.67;10.50;;;16.30;94.50;;;;;;5030425;28;20519;-74
2021/07/10 07:03:36;;;;;;;11.90;10.70;;;16.40;92.10;;;;;;5035697;28;20467;-74
2021/07/10 07:06:05;;;;;;;11.67;10.67;;;16.50;92.50;;;;;;5031955;28;20488;-74
2021/07/10 07:08:32;;;;;;;11.47;10.37;;;16.60;91.60;;;;;;5027558;28;20540;-74
2021/07/10 07:10:59;;;;;;;11.43;10.20;;;16.50;92.30;;;;;;5027735;28;20460;-74
2021/07/10 07:13:25;;;;;;;11.67;10.67;;;16.70;92.30;;;;;;5028183;28;20587;-74
2021/07/10 07:15:52;;;;;;;10.40;9.50;;;16.70;91.30;;;;;;5029167;28;20484;-74
2021/07/10 07:18:19;;;;;;;10.47;9.57;;;16.90;91.70;;;;;;5026525;28;20538;-74
2021/07/10 07:20:46;;;;;;;12.07;10.87;;;17.00;90.70;;;;;;5028101;28;20458;-74
2021/07/10 07:23:14;;;;;;;11.60;10.50;;;16.90;90.80;;;;;;5031022;28;20553;-74
2021/07/10 07:25:41;;;;;;;11.10;10.20;;;16.80;91.30;;;;;;5029895;28;20548;-74
2021/07/10 07:28:08;;;;;;;11.37;10.47;;;16.70;90.90;;;;;;5028515;28;20561;-74
2021/07/10 07:30:35;;;;;;;12.40;11.30;;;16.50;91.20;;;;;;5027991;28;20821;-74
2021/07/10 07:33:02;;;;;;;10.33;9.43;;;16.40;92.00;;;;;;5025751;28;20501;-74
2021/07/10 07:35:29;;;;;;;10.80;9.90;;;16.30;92.00;;;;;;5030560;28;20457;-75
2021/07/10 07:37:56;;;;;;;12.27;11.17;;;16.30;91.90;;;;;;5025723;28;20453;-75
2021/07/10 07:40:24;;;;;;;10.47;9.57;;;16.50;91.80;;;;;;5034764;28;20442;-75
2021/07/10 07:42:52;;;;;;;11.87;10.77;;;16.90;91.30;;;;;;5031090;28;20482;-75
2021/07/10 07:45:20;;;;;;;10.80;9.90;;;17.00;89.60;;;;;;5026128;28;20532;-76
2021/07/10 07:47:48;;;;;;;10.70;9.70;;;16.80;90.20;;;;;;5027810;28;20481;-73
2021/07/10 07:50:16;;;;;;;9.90;9.00;;;16.80;90.00;;;;;;5028562;28;20571;-73
2021/07/10 07:52:43;;;;;;;9.70;8.90;;;16.70;89.40;;;;;;5024581;28;20637;-74
2021/07/10 07:55:12;;;;;;;10.57;9.67;;;16.60;90.10;;;;;;5029468;28;20464;-75
2021/07/10 07:57:41;;;;;;;8.40;7.70;;;16.90;89.90;;;;;;5027350;28;20496;-74
2021/07/10 08:00:10;;;;;;;8.77;8.07;;;17.00;88.60;;;;;;5030826;28;20466;-75
2021/07/10 08:02:38;;;;;;;9.57;8.73;;;17.30;87.30;;;;;;5030422;28;23127;-74
2021/07/10 08:05:06;;;;;;;9.20;8.37;;;17.30;87.20;;;;;;5031755;28;20456;-75
2021/07/10 08:07:33;;;;;;;8.17;7.50;;;17.30;87.30;;;;;;5034672;28;20468;-76
2021/07/10 08:10:00;;;;;;;8.40;7.70;;;17.40;86.10;;;;;;5026349;28;20544;-75
2021/07/10 08:12:27;;;;;;;7.20;6.50;;;17.20;86.70;;;;;;5024178;28;20576;-75
2021/07/10 08:14:55;;;;;;;8.30;7.60;;;17.70;86.40;;;;;;5026247;28;20505;-76
2021/07/10 08:17:22;;;;;;;7.97;7.40;;;18.10;83.50;;;;;;5029533;28;20479;-75
2021/07/10 08:19:49;;;;;;;7.57;6.87;;;18.30;83.30;;;;;;5023843;28;20543;-75
2021/07/10 08:22:16;;;;;;;7.10;6.60;;;18.50;81.50;;;;;;5027159;28;20462;-75
2021/07/10 08:24:43;;;;;;;7.17;6.67;;;18.70;80.60;;;;;;5028544;28;20495;-75
2021/07/10 08:27:09;;;;;;;7.60;6.90;;;19.00;78.80;;;;;;5029276;28;20542;-75
2021/07/10 08:29:37;;;;;;;7.10;6.60;;;18.60;79.20;;;;;;5026528;28;20455;-75
2021/07/10 08:32:06;;;;;;;6.10;5.70;;;18.40;79.50;;;;;;5029389;28;20552;-75
2021/07/10 08:34:33;;;;;;;6.73;6.23;;;18.80;79.20;;;;;;5023227;28;20469;-76
2021/07/10 08:37:02;;;;;;;5.53;5.03;;;19.40;76.80;;;;;;5039294;28;20960;-76
2021/07/10 08:39:29;;;;;;;6.87;6.17;;;19.90;76.10;;;;;;5024864;28;20449;-75
2021/07/10 08:41:56;;;;;;;6.60;6.07;;;19.70;74.30;;;;;;5025754;28;20872;-76
2021/07/10 08:44:24;;;;;;;5.53;5.03;;;19.60;75.30;;;;;;5026524;28;20495;-77
2021/07/10 08:46:52;;;;;;;6.13;5.63;;;19.70;75.90;;;;;;5026875;28;20539;-76
2021/07/10 08:49:22;;;;;;;6.27;5.77;;;20.50;75.00;;;;;;5026397;28;20449;-76
2021/07/10 08:51:49;;;;;;;7.13;6.50;;;20.60;73.60;;;;;;5030039;28;20483;-76
2021/07/10 08:54:16;;;;;;;6.40;5.87;;;21.10;72.30;;;;;;5028224;28;21130;-76
2021/07/10 08:56:45;;;;;;;5.63;5.10;;;21.00;71.50;;;;;;5027074;28;20472;-78
2021/07/10 08:59:12;;;;;;;5.60;5.20;;;21.50;71.10;;;;;;5032937;28;20581;-77
2021/07/10 09:01:40;;;;;;;5.20;4.90;;;21.30;70.00;;;;;;5032814;28;21580;-79
2021/07/10 09:04:07;;;;;;;5.10;4.70;;;20.90;70.50;;;;;;5036520;28;20522;-78
2021/07/10 09:06:35;;;;;;;4.23;3.90;;;20.80;70.70;;;;;;5033799;28;20453;-77
2021/07/10 09:09:03;;;;;;;5.90;4.40;;;20.80;70.20;;;;;;5034678;28;20466;-76
2021/07/10 09:11:31;;;;;;;5.17;4.70;;;21.20;70.40;;;;;;5030440;28;20467;-76
2021/07/10 09:13:58;;;;;;;4.70;4.40;;;21.50;69.60;;;;;;5038019;28;20456;-78
2021/07/10 09:16:27;;;;;;;5.00;4.70;;;21.30;69.60;;;;;;5027430;28;21188;-76
2021/07/10 09:18:57;;;;;;;4.47;4.13;;;20.20;70.40;;;;;;5021994;28;20568;-76
2021/07/10 09:21:43;;;;;;;4.20;3.97;;;20.50;70.90;;;;;;5023741;28;20476;-77
2021/07/10 09:24:14;;;;;;;4.47;4.17;;;20.30;70.80;;;;;;5031324;28;20455;-77
2021/07/10 09:26:43;;;;;;;4.30;4.00;;;20.20;70.60;;;;;;5023425;28;20454;-77
2021/07/10 09:29:13;;;;;;;4.70;4.30;;;20.20;71.20;;;;;;5041131;28;20457;-77
2021/07/10 09:31:42;;;;;;;4.10;3.80;;;20.30;71.10;;;;;;5025864;28;20969;-78
2021/07/10 09:34:12;;;;;;;3.90;3.60;;;20.50;71.10;;;;;;5030732;28;20951;-76
2021/07/10 09:36:54;;;;;;;4.00;3.67;;;20.80;70.90;;;;;;5023774;28;20446;-76
2021/07/10 09:39:23;;;;;;;3.90;3.70;;;21.00;71.30;;;;;;5027769;28;20445;-76
2021/07/10 09:41:50;;;;;;;3.43;3.13;;;21.10;70.40;;;;;;5025943;28;20456;-76
2021/07/10 09:44:18;;;;;;;3.77;3.47;;;21.10;69.50;;;;;;5030813;28;20535;-76
2021/07/10 09:46:45;;;;;;;4.47;4.07;;;21.10;69.60;;;;;;5030145;28;20444;-76
2021/07/10 09:49:27;;;;;;;4.93;4.07;;;20.50;69.50;;;;;;5027336;28;20530;-76
2021/07/10 09:52:01;;;;;;;3.63;3.43;;;20.90;70.40;;;;;;5038642;28;20536;-76
2021/07/10 09:54:32;;;;;;;3.70;3.40;;;21.10;70.10;;;;;;5036025;28;20443;-76
2021/07/10 09:57:05;;;;;;;4.30;3.90;;;21.30;69.80;;;;;;5034957;28;20457;-76
2021/07/10 09:59:36;;;;;;;4.37;4.07;;;21.10;68.70;;;;;;5034983;28;20565;-75
2021/07/10 10:02:10;;;;;;;5.10;3.93;;;20.90;69.30;;;;;;5033720;28;20443;-77
2021/07/10 10:04:37;;;;;;;5.07;3.70;;;20.90;69.60;;;;;;5033821;28;20533;-76
2021/07/10 10:07:10;;;;;;;4.47;4.07;;;21.10;70.00;;;;;;5030138;28;20446;-76
2021/07/10 10:09:38;;;;;;;8.10;3.70;;;21.70;69.20;;;;;;5032364;28;20451;-77
2021/07/10 10:12:08;;;;;;;3.93;3.37;;;21.20;68.10;;;;;;5029775;28;20950;-76
2021/07/10 10:14:39;;;;;;;3.43;3.10;;;21.40;67.50;;;;;;5029988;28;20454;-77
2021/07/10 10:17:06;;;;;;;4.33;3.20;;;21.80;67.80;;;;;;5035834;28;20584;-77
2021/07/10 10:19:35;;;;;;;3.73;3.47;;;22.30;68.00;;;;;;5031702;28;20471;-77
2021/07/10 10:22:07;;;;;;;4.10;3.73;;;22.60;66.10;;;;;;5031673;28;20465;-77
2021/07/10 10:24:35;;;;;;;3.73;3.47;;;21.80;67.30;;;;;;5030337;28;22268;-77
2021/07/10 10:27:02;;;;;;;3.97;3.67;;;21.90;67.10;;;;;;5037574;28;20472;-77
2021/07/10 10:29:30;;;;;;;3.97;3.67;;;22.30;67.50;;;;;;5030152;28;21082;-77
2021/07/10 10:31:58;;;;;;;4.23;3.93;;;22.50;67.10;;;;;;5026161;28;20469;-77
2021/07/10 10:34:26;;;;;;;3.50;3.20;;;22.70;65.40;;;;;;5036983;28;20451;-77
2021/07/10 10:36:54;;;;;;;3.70;3.40;;;22.60;65.40;;;;;;5038609;28;20540;-77
2021/07/10 10:39:24;;;;;;;3.33;3.10;;;22.90;64.50;;;;;;5036669;28;21187;-78
2021/07/10 10:41:54;;;;;;;3.80;3.60;;;23.40;65.10;;;;;;5036010;28;20956;-77
2021/07/10 10:44:21;;;;;;;3.73;3.53;;;23.60;64.00;;;;;;5037676;28;20492;-77
2021/07/10 10:46:52;;;;;;;3.77;3.47;;;24.00;63.10;;;;;;5035620;28;20456;-77
2021/07/10 10:49:37;;;;;;;3.87;3.60;;;24.20;63.60;;;;;;5039752;28;20507;-77
2021/07/10 10:52:41;;;;;;;2.60;2.50;;;24.10;63.80;;;;;;5035915;28;20901;-77
2021/07/10 10:55:18;;;;;;;3.60;3.40;;;23.90;62.90;;;;;;5033265;28;20540;-76
2021/07/10 10:57:51;;;;;;;3.30;3.00;;;24.00;62.50;;;;;;5034050;28;20530;-77
2021/07/10 11:00:29;;;;;;;3.17;2.97;;;23.90;62.10;;;;;;5031697;28;20446;-77
2021/07/10 11:03:01;;;;;;;3.30;3.10;;;23.60;62.10;;;;;;5041554;28;20445;-76
2021/07/10 11:05:40;;;;;;;4.60;3.37;;;22.80;62.30;;;;;;5039334;28;20478;-77
2021/07/10 11:08:29;;;;;;;3.43;3.23;;;23.10;63.80;;;;;;5035748;28;21555;-77
2021/07/10 11:11:27;;;;;;;3.60;3.40;;;23.30;62.80;;;;;;5036344;28;20469;-77
2021/07/10 11:14:14;;;;;;;3.70;3.40;;;23.30;62.30;;;;;;5037634;28;20589;-77
2021/07/10 11:17:10;;;;;;;3.50;3.20;;;23.30;61.60;;;;;;5037588;28;20512;-77
2021/07/10 11:20:03;;;;;;;3.33;3.13;;;23.60;61.60;;;;;;5034760;28;20448;-77
2021/07/10 11:22:56;;;;;;;3.03;2.73;;;23.30;61.00;;;;;;5038782;28;20463;-76
2021/07/10 11:26:03;;;;;;;3.10;2.80;;;23.70;61.50;;;;;;5034575;28;20979;-77
2021/07/10 11:28:40;;;;;;;3.33;3.13;;;23.70;61.20;;;;;;5032025;28;20543;-76
2021/07/10 11:31:09;;;;;;;3.63;3.00;;;23.50;60.80;;;;;;5031277;28;20437;-77
2021/07/10 11:34:07;;;;;;;3.00;2.80;;;23.60;60.30;;;;;;5035407;28;20609;-76
2021/07/10 11:37:01;;;;;;;3.37;3.17;;;23.90;59.80;;;;;;5039718;28;20454;-76
2021/07/10 11:39:55;;;;;;;5.30;4.97;;;24.10;60.20;;;;;;5036282;28;20527;-77
2021/07/10 11:42:45;;;;;;;3.10;2.90;;;23.90;59.40;;;;;;5031506;28;20454;-77
2021/07/10 11:45:24;;;;;;;3.60;3.30;;;23.30;60.50;;;;;;5037346;28;20453;-77
2021/07/10 11:47:52;;;;;;;2.90;2.70;;;23.50;59.90;;;;;;5043059;28;20854;-77
2021/07/10 11:50:21;;;;;;;3.40;3.10;;;23.90;60.20;;;;;;5048373;28;20467;-77
2021/07/10 11:52:59;;;;;;;2.90;2.77;;;24.20;59.40;;;;;;5031812;28;20495;-77
2021/07/10 11:55:27;;;;;;;3.00;2.80;;;24.40;59.30;;;;;;5038240;28;20478;-77
2021/07/10 11:57:54;;;;;;;5.10;3.57;;;24.10;58.30;;;;;;5044154;28;20473;-77
2021/07/10 12:00:25;;;;;;;3.07;2.87;;;24.40;59.00;;;;;;5040912;28;20460;-77
2021/07/10 12:02:52;;;;;;;3.43;3.23;;;24.30;57.70;;;;;;5040519;28;20574;-77
2021/07/10 12:05:20;;;;;;;3.37;3.17;;;24.60;57.70;;;;;;5038958;28;20470;-77
2021/07/10 12:07:48;;;;;;;3.20;3.00;;;24.90;58.00;;;;;;5042015;28;20441;-76
2021/07/10 12:10:18;;;;;;;4.03;3.13;;;25.30;57.10;;;;;;5036738;28;20489;-77
2021/07/10 12:12:47;;;;;;;3.43;3.00;;;25.40;57.00;;;;;;5037182;28;20461;-77
2021/07/10 12:15:15;;;;;;;2.80;2.60;;;25.40;58.00;;;;;;5038311;28;20450;-77
2021/07/10 12:17:46;;;;;;;3.03;2.83;;;25.40;57.50;;;;;;5038829;28;20470;-78
2021/07/10 12:20:14;;;;;;;3.50;3.10;;;25.20;57.20;;;;;;5034338;28;22246;-78
2021/07/10 12:22:54;;;;;;;3.57;2.83;;;25.10;57.40;;;;;;5040476;28;20472;-75
2021/07/10 12:25:23;;;;;;;2.43;2.23;;;25.10;56.70;;;;;;5035967;28;21000;-77
2021/07/10 12:27:55;;;;;;;3.47;3.17;;;25.40;56.90;;;;;;5039195;28;20456;-77
2021/07/10 12:30:40;;;;;;;2.77;2.67;;;25.70;56.70;;;;;;5026784;28;21098;-77
2021/07/10 12:33:37;;;;;;;3.30;3.10;;;25.60;56.20;;;;;;5037253;28;20498;-77
2021/07/10 12:36:23;;;;;;;2.87;2.67;;;25.70;56.20;;;;;;5043867;28;20447;-77
2021/07/10 12:39:09;;;;;;;3.10;2.80;;;25.60;55.30;;;;;;5029881;28;20521;-77
2021/07/10 12:41:45;;;;;;;2.73;2.30;;;25.50;55.20;;;;;;5031972;28;20558;-76
2021/07/10 12:44:16;;;;;;;2.80;2.60;;;25.90;55.40;;;;;;5033738;28;20472;-77
2021/07/10 12:46:51;;;;;;;3.00;2.80;;;26.10;55.40;;;;;;5039470;28;20958;-77